Time;durP1;ratioP1;P1;durP2;ratioP2;P2;SDS_P1;SDS_P2;PMS_P1;PMS_P2;Temp;Humidity;BMP_temperature;BMP_pressure;BME280_temperature;BME280_humidity;BME280_pressure;Samples;Min_cycle;Max_cycle;Signal;HPM_P1;HPM_P2
2022/06/12 00:00:11;;;;;;;24.77;18.00;;;;;;;;;;1760250;81;21694;-74
2022/06/12 00:02:37;;;;;;;23.40;16.00;;;;;;;;;;1759397;81;21048;-73
2022/06/12 00:05:03;;;;;;;26.57;16.85;;;;;;;;;;1759166;81;21559;-73
2022/06/12 00:07:31;;;;;;;24.92;17.65;;;;;;;;;;1758883;81;21048;-73
2022/06/12 00:09:57;;;;;;;27.93;18.30;;;;;;;;;;1750826;81;21032;-73
2022/06/12 00:12:22;;;;;;;26.42;18.48;;;;;;;;;;1746631;81;20996;-73
2022/06/12 00:14:51;;;;;;;30.40;19.82;;;;;;;;;;1762225;81;21028;-73
2022/06/12 00:17:17;;;;;;;30.70;23.25;;;;;;;;;;1760949;81;21057;-73
2022/06/12 00:19:44;;;;;;;28.40;22.37;;;;;;;;;;1758668;81;21083;-73
2022/06/12 00:22:10;;;;;;;24.80;17.57;;;;;;;;;;1761587;81;21016;-73
2022/06/12 00:24:37;;;;;;;22.32;15.78;;;;;;;;;;1747339;81;21040;-74
2022/06/12 00:27:03;;;;;;;19.67;14.60;;;;;;;;;;1736699;81;21028;-73
2022/06/12 00:29:32;;;;;;;20.05;15.65;;;;;;;;;;1760796;81;21071;-73
2022/06/12 00:32:01;;;;;;;18.95;15.38;;;;;;;;;;1749662;81;21031;-73
2022/06/12 00:34:32;;;;;;;20.02;14.90;;;;;;;;;;1739619;81;21019;-73
2022/06/12 00:36:58;;;;;;;19.37;13.75;;;;;;;;;;1760989;81;21056;-73
2022/06/12 00:39:24;;;;;;;19.07;15.80;;;;;;;;;;1756416;81;21012;-73
2022/06/12 00:41:51;;;;;;;18.92;16.65;;;;;;;;;;1747501;81;21234;-73
2022/06/12 00:44:18;;;;;;;15.55;12.63;;;;;;;;;;1741190;81;21567;-73
2022/06/12 00:46:55;;;;;;;16.93;13.00;;;;;;;;;;1734741;81;21101;-73
2022/06/12 00:49:35;;;;;;;18.50;13.03;;;;;;;;;;1743805;81;21244;-73
2022/06/12 00:52:09;;;;;;;18.65;13.95;;;;;;;;;;1747935;81;21104;-73
2022/06/12 00:54:36;;;;;;;16.10;12.93;;;;;;;;;;1764622;81;21099;-73
2022/06/12 00:57:03;;;;;;;14.50;12.82;;;;;;;;;;1748266;81;21020;-73
2022/06/12 00:59:37;;;;;;;15.30;12.20;;;;;;;;;;1762969;81;21095;-74
2022/06/12 01:07:46;;;;;;;14.38;12.25;;;;;;;;;;1730740;80;21020;-75
2022/06/12 01:10:13;;;;;;;15.70;12.03;;;;;;;;;;1732199;81;21047;-75
2022/06/12 01:12:43;;;;;;;15.48;13.32;;;;;;;;;;1749396;80;21028;-74
2022/06/12 01:15:11;;;;;;;14.35;12.45;;;;;;;;;;1749645;81;21566;-75
2022/06/12 01:17:39;;;;;;;13.40;12.00;;;;;;;;;;1749706;80;21028;-74
2022/06/12 01:20:08;;;;;;;17.50;12.55;;;;;;;;;;1726539;82;21027;-75
2022/06/12 01:22:51;;;;;;;13.00;11.53;;;;;;;;;;1721906;82;21051;-75
2022/06/12 01:25:22;;;;;;;17.87;12.70;;;;;;;;;;1738111;80;22105;-75
2022/06/12 01:27:53;;;;;;;14.35;12.85;;;;;;;;;;1731396;82;21067;-74
2022/06/12 01:30:20;;;;;;;15.38;11.25;;;;;;;;;;1694782;84;21052;-75
2022/06/12 01:32:49;;;;;;;14.50;12.43;;;;;;;;;;1670822;84;21143;-75
2022/06/12 01:35:26;;;;;;;14.47;13.08;;;;;;;;;;1700150;83;21586;-76
2022/06/12 01:38:02;;;;;;;12.85;11.08;;;;;;;;;;1714492;83;21562;-76
2022/06/12 01:40:33;;;;;;;14.10;11.55;;;;;;;;;;1693502;83;21008;-76
2022/06/12 01:43:14;;;;;;;14.15;11.97;;;;;;;;;;1696960;83;21125;-76
2022/06/12 01:45:43;;;;;;;15.30;12.30;;;;;;;;;;1704199;83;21563;-75
2022/06/12 01:48:14;;;;;;;13.53;12.18;;;;;;;;;;1712701;83;21562;-76
2022/06/12 01:50:59;;;;;;;17.17;13.03;;;;;;;;;;1714505;83;22169;-76
2022/06/12 01:53:46;;;;;;;14.53;13.05;;;;;;;;;;1711803;83;21065;-74
2022/06/12 01:56:13;;;;;;;14.45;11.60;;;;;;;;;;1706624;83;21055;-74
2022/06/12 01:58:45;;;;;;;14.38;11.83;;;;;;;;;;1704044;83;21055;-75
2022/06/12 02:01:18;;;;;;;16.35;12.25;;;;;;;;;;1703270;83;21055;-74
2022/06/12 02:03:46;;;;;;;14.35;11.85;;;;;;;;;;1731085;82;21614;-76
2022/06/12 02:06:20;;;;;;;16.17;12.28;;;;;;;;;;1740784;81;21063;-75
2022/06/12 02:08:49;;;;;;;15.80;11.73;;;;;;;;;;1744595;81;21068;-75
2022/06/12 02:13:53;;;;;;;14.18;12.40;;;;;;;;;;1667417;83;21043;-76
2022/06/12 02:16:31;;;;;;;16.70;14.90;;;;;;;;;;1714341;82;21063;-76
2022/06/12 02:19:04;;;;;;;16.95;11.95;;;;;;;;;;1689471;82;21097;-75
2022/06/12 02:21:34;;;;;;;14.70;12.00;;;;;;;;;;1754272;80;21033;-75
2022/06/12 02:24:02;;;;;;;14.18;11.45;;;;;;;;;;1766986;79;21032;-75
2022/06/12 02:26:34;;;;;;;13.53;11.57;;;;;;;;;;1777734;80;21047;-75
2022/06/12 02:29:02;;;;;;;15.05;13.40;;;;;;;;;;1754097;80;21036;-75
2022/06/12 02:31:29;;;;;;;15.72;14.00;;;;;;;;;;1764222;80;21047;-75
2022/06/12 02:33:57;;;;;;;15.23;12.07;;;;;;;;;;1765144;79;22172;-75
2022/06/12 02:36:25;;;;;;;14.68;11.97;;;;;;;;;;1774921;79;21059;-75
2022/06/12 02:38:55;;;;;;;13.58;12.10;;;;;;;;;;1750638;79;21598;-74
2022/06/12 02:41:26;;;;;;;17.05;12.53;;;;;;;;;;1757947;80;21060;-74
2022/06/12 02:43:54;;;;;;;14.85;13.40;;;;;;;;;;1701603;82;21552;-75
2022/06/12 02:46:24;;;;;;;16.10;14.45;;;;;;;;;;1733048;82;21049;-74
2022/06/12 02:48:51;;;;;;;14.07;10.95;;;;;;;;;;1719956;82;21071;-74
2022/06/12 02:51:26;;;;;;;16.80;12.78;;;;;;;;;;1731947;82;21059;-74
2022/06/12 02:53:58;;;;;;;15.90;12.75;;;;;;;;;;1721822;82;21095;-74
2022/06/12 02:56:27;;;;;;;13.85;12.30;;;;;;;;;;1734645;82;21043;-75
2022/06/12 02:58:57;;;;;;;14.58;12.37;;;;;;;;;;1730023;82;21044;-75
2022/06/12 03:01:34;;;;;;;14.58;12.33;;;;;;;;;;1724601;82;21009;-76
2022/06/12 03:04:08;;;;;;;15.10;13.22;;;;;;;;;;1742202;80;21119;-76
2022/06/12 03:06:34;;;;;;;15.25;11.55;;;;;;;;;;1736511;81;21064;-75
2022/06/12 03:09:02;;;;;;;13.80;11.83;;;;;;;;;;1717669;82;21551;-75
2022/06/12 03:11:33;;;;;;;14.35;12.60;;;;;;;;;;1712765;82;21075;-75
2022/06/12 03:14:00;;;;;;;14.20;12.70;;;;;;;;;;1716941;82;21076;-75
2022/06/12 03:16:27;;;;;;;14.20;12.70;;;;;;;;;;1726498;82;21033;-75
2022/06/12 03:19:02;;;;;;;15.63;14.13;;;;;;;;;;1729273;82;21099;-75
2022/06/12 03:21:42;;;;;;;15.10;12.03;;;;;;;;;;1713180;82;21076;-75
2022/06/12 03:24:18;;;;;;;15.88;13.30;;;;;;;;;;1727572;82;21088;-75
2022/06/12 03:26:47;;;;;;;14.85;12.45;;;;;;;;;;1703852;82;21547;-76
2022/06/12 03:29:15;;;;;;;14.63;12.75;;;;;;;;;;1740458;82;21040;-75
2022/06/12 03:31:42;;;;;;;15.53;13.05;;;;;;;;;;1738912;82;21600;-76
2022/06/12 03:34:10;;;;;;;14.38;12.98;;;;;;;;;;1728346;82;21044;-75
2022/06/12 03:36:44;;;;;;;16.67;15.03;;;;;;;;;;1712454;82;21015;-76
2022/06/12 03:39:18;;;;;;;14.95;11.70;;;;;;;;;;1716394;82;21028;-76
2022/06/12 03:41:52;;;;;;;14.93;11.75;;;;;;;;;;1715776;82;21057;-76
2022/06/12 03:44:29;;;;;;;16.73;12.25;;;;;;;;;;1709369;82;21087;-75
2022/06/12 03:46:57;;;;;;;14.23;12.70;;;;;;;;;;1731627;82;21070;-76
2022/06/12 03:49:34;;;;;;;14.60;13.20;;;;;;;;;;1732640;82;21574;-76
2022/06/12 03:52:13;;;;;;;14.80;11.73;;;;;;;;;;1721046;82;21000;-76
2022/06/12 03:54:39;;;;;;;14.45;13.03;;;;;;;;;;1729198;82;21115;-76
2022/06/12 04:00:15;;;;;;;15.28;12.25;;;;;;;;;;1765666;80;21012;-76
2022/06/12 04:02:39;;;;;;;16.62;13.20;;;;;;;;;;1770210;79;21104;-76
2022/06/12 04:05:05;;;;;;;15.10;13.43;;;;;;;;;;1776333;79;21039;-76
2022/06/12 04:07:34;;;;;;;13.62;12.20;;;;;;;;;;1739679;82;22162;-78
2022/06/12 04:10:03;;;;;;;12.93;10.95;;;;;;;;;;1726252;82;21023;-77
2022/06/12 04:12:30;;;;;;;12.93;11.53;;;;;;;;;;1712810;82;21033;-77
2022/06/12 04:14:58;;;;;;;14.25;12.60;;;;;;;;;;1734949;82;20997;-76
2022/06/12 04:17:24;;;;;;;14.00;12.35;;;;;;;;;;1725895;82;21083;-76
2022/06/12 04:19:59;;;;;;;12.73;11.43;;;;;;;;;;1720702;82;21037;-77
2022/06/12 04:22:32;;;;;;;13.28;11.90;;;;;;;;;;1709786;82;21004;-77
2022/06/12 04:25:00;;;;;;;13.68;11.70;;;;;;;;;;1705745;82;21095;-78
2022/06/12 04:27:27;;;;;;;13.05;11.70;;;;;;;;;;1720366;82;21060;-78
2022/06/12 04:29:59;;;;;;;12.60;11.35;;;;;;;;;;1739857;82;21106;-78
2022/06/12 04:32:25;;;;;;;13.93;11.95;;;;;;;;;;1729737;82;21061;-78
2022/06/12 04:34:53;;;;;;;16.55;12.63;;;;;;;;;;1732608;82;20978;-78
2022/06/12 04:37:23;;;;;;;14.30;12.80;;;;;;;;;;1738221;80;21496;-78
2022/06/12 04:39:50;;;;;;;14.10;12.28;;;;;;;;;;1738699;80;21060;-79
2022/06/12 04:42:16;;;;;;;16.57;13.30;;;;;;;;;;1718406;82;21265;-78
2022/06/12 04:44:42;;;;;;;14.63;12.05;;;;;;;;;;1726775;81;21087;-77
2022/06/12 04:47:10;;;;;;;15.45;11.85;;;;;;;;;;1741469;82;20977;-78
2022/06/12 04:49:37;;;;;;;16.32;12.85;;;;;;;;;;1727189;82;21598;-78
2022/06/12 04:52:04;;;;;;;14.58;13.08;;;;;;;;;;1741382;80;21596;-78
2022/06/12 04:54:31;;;;;;;13.83;12.37;;;;;;;;;;1769639;79;21080;-78
2022/06/12 04:56:57;;;;;;;16.05;12.85;;;;;;;;;;1755250;79;21023;-77
2022/06/12 04:59:23;;;;;;;17.05;11.93;;;;;;;;;;1712081;82;21497;-77
2022/06/12 05:01:49;;;;;;;13.93;12.15;;;;;;;;;;1703792;80;21529;-77
2022/06/12 05:04:17;;;;;;;13.62;11.83;;;;;;;;;;1733223;82;21131;-76
2022/06/12 05:06:44;;;;;;;14.93;12.40;;;;;;;;;;1721543;80;21107;-75
2022/06/12 05:09:13;;;;;;;14.78;11.73;;;;;;;;;;1702511;82;21080;-76
2022/06/12 05:11:40;;;;;;;13.32;11.78;;;;;;;;;;1735818;81;20999;-76
2022/06/12 05:14:06;;;;;;;14.23;12.03;;;;;;;;;;1699194;82;21112;-76
2022/06/12 05:16:34;;;;;;;13.35;11.57;;;;;;;;;;1738768;81;21103;-76
2022/06/12 05:19:04;;;;;;;14.15;11.48;;;;;;;;;;1742921;82;21040;-75
2022/06/12 05:21:30;;;;;;;15.43;11.93;;;;;;;;;;1744748;82;21058;-77
2022/06/12 05:23:58;;;;;;;13.32;11.20;;;;;;;;;;1763687;80;21100;-76
2022/06/12 05:26:24;;;;;;;13.78;11.20;;;;;;;;;;1814444;78;21614;-77
2022/06/12 05:28:50;;;;;;;12.28;10.93;;;;;;;;;;1818472;78;21051;-76
2022/06/12 05:31:16;;;;;;;14.43;11.45;;;;;;;;;;1779037;78;20972;-77
2022/06/12 05:33:43;;;;;;;20.50;11.55;;;;;;;;;;1744875;80;21020;-77
2022/06/12 05:36:10;;;;;;;12.50;11.05;;;;;;;;;;1741464;80;21647;-77
2022/06/12 05:38:36;;;;;;;12.37;11.08;;;;;;;;;;1809616;78;21011;-77
2022/06/12 05:41:02;;;;;;;14.03;12.00;;;;;;;;;;1815555;79;21078;-77
2022/06/12 05:43:28;;;;;;;12.40;11.15;;;;;;;;;;1779348;80;21020;-77
2022/06/12 05:45:55;;;;;;;13.95;11.33;;;;;;;;;;1782734;79;21059;-77
2022/06/12 05:48:22;;;;;;;14.95;11.40;;;;;;;;;;1761972;80;21008;-76
2022/06/12 05:50:50;;;;;;;13.78;12.30;;;;;;;;;;1762086;79;21008;-75
2022/06/12 05:53:17;;;;;;;12.00;10.80;;;;;;;;;;1770920;80;20984;-76
2022/06/12 05:55:44;;;;;;;19.67;10.70;;;;;;;;;;1751557;80;21543;-77
2022/06/12 05:58:10;;;;;;;11.80;9.43;;;;;;;;;;1749913;80;20980;-76
2022/06/12 06:00:38;;;;;;;13.08;10.25;;;;;;;;;;1760872;80;21297;-74
2022/06/12 06:03:04;;;;;;;11.00;9.90;;;;;;;;;;1772054;79;21108;-78
2022/06/12 06:05:30;;;;;;;15.10;10.03;;;;;;;;;;1757234;80;21059;-83
2022/06/12 06:07:56;;;;;;;13.65;10.38;;;;;;;;;;1768506;79;21044;-82
2022/06/12 06:10:23;;;;;;;12.15;9.90;;;;;;;;;;1760610;79;21590;-81
2022/06/12 06:12:51;;;;;;;13.03;10.10;;;;;;;;;;1769566;79;21079;-78
2022/06/12 06:15:19;;;;;;;11.75;9.70;;;;;;;;;;1780448;79;21004;-80
2022/06/12 06:17:47;;;;;;;11.63;10.08;;;;;;;;;;1777601;80;21016;-79
2022/06/12 06:20:14;;;;;;;11.97;10.72;;;;;;;;;;1780773;79;20996;-78
2022/06/12 06:22:40;;;;;;;10.65;9.55;;;;;;;;;;1763707;80;21071;-78
2022/06/12 06:25:08;;;;;;;9.65;8.55;;;;;;;;;;1750137;80;21004;-79
2022/06/12 06:27:34;;;;;;;13.50;9.63;;;;;;;;;;1750755;80;21595;-79
2022/06/12 06:30:00;;;;;;;11.40;8.93;;;;;;;;;;1749068;80;21562;-77
2022/06/12 06:32:26;;;;;;;10.20;9.13;;;;;;;;;;1764093;80;21002;-77
2022/06/12 06:34:52;;;;;;;10.72;9.03;;;;;;;;;;1787857;79;21065;-77
2022/06/12 06:37:18;;;;;;;8.53;7.65;;;;;;;;;;1783155;79;21007;-77
2022/06/12 06:39:44;;;;;;;9.08;8.18;;;;;;;;;;1782160;79;21034;-78
2022/06/12 06:42:10;;;;;;;8.73;7.92;;;;;;;;;;1755699;80;21522;-77
2022/06/12 06:47:21;;;;;;;8.58;7.78;;;;;;;;;;1780869;79;21526;-76
2022/06/12 06:49:47;;;;;;;8.13;7.30;;;;;;;;;;1780199;79;21585;-76
2022/06/12 06:52:13;;;;;;;9.10;7.80;;;;;;;;;;1771706;80;20991;-77
2022/06/12 06:54:39;;;;;;;9.15;8.25;;;;;;;;;;1773058;79;21060;-79
2022/06/12 06:57:05;;;;;;;9.58;7.72;;;;;;;;;;1773726;79;21005;-78
2022/06/12 06:59:33;;;;;;;8.25;7.45;;;;;;;;;;1778312;79;20996;-78
2022/06/12 07:01:59;;;;;;;8.28;7.40;;;;;;;;;;1781720;79;21048;-79
2022/06/12 07:04:25;;;;;;;9.78;8.08;;;;;;;;;;1785758;79;20945;-76
2022/06/12 07:06:51;;;;;;;9.73;8.28;;;;;;;;;;1783167;79;20960;-75
2022/06/12 07:09:17;;;;;;;10.23;7.60;;;;;;;;;;1777366;80;21070;-75
2022/06/12 07:11:44;;;;;;;8.78;7.97;;;;;;;;;;1778834;80;21538;-76
2022/06/12 07:14:11;;;;;;;9.08;7.85;;;;;;;;;;1778088;79;20984;-76
2022/06/12 07:16:38;;;;;;;10.63;8.20;;;;;;;;;;1778978;79;21016;-76
2022/06/12 07:19:05;;;;;;;8.65;7.75;;;;;;;;;;1768573;78;20983;-78
2022/06/12 07:21:31;;;;;;;8.43;7.55;;;;;;;;;;1762516;79;21067;-77
2022/06/12 07:23:58;;;;;;;13.13;8.45;;;;;;;;;;1774845;79;21028;-76
2022/06/12 07:26:25;;;;;;;8.63;7.75;;;;;;;;;;1763712;79;21086;-77
2022/06/12 07:28:51;;;;;;;8.70;7.90;;;;;;;;;;1773755;80;21539;-77
2022/06/12 07:31:17;;;;;;;9.08;7.80;;;;;;;;;;1759632;80;20969;-76
2022/06/12 07:33:43;;;;;;;8.98;8.08;;;;;;;;;;1775756;79;21005;-76
2022/06/12 07:36:10;;;;;;;9.58;8.58;;;;;;;;;;1764619;80;20989;-75
2022/06/12 07:38:36;;;;;;;8.60;7.80;;;;;;;;;;1777215;79;21504;-76
2022/06/12 07:41:03;;;;;;;9.58;8.05;;;;;;;;;;1775766;79;21068;-77
2022/06/12 07:43:29;;;;;;;8.90;7.75;;;;;;;;;;1779065;79;21043;-77
2022/06/12 07:45:57;;;;;;;9.68;8.65;;;;;;;;;;1775648;78;21052;-79
2022/06/12 07:48:25;;;;;;;9.65;8.68;;;;;;;;;;1768979;80;21082;-71
2022/06/12 07:50:51;;;;;;;9.90;8.45;;;;;;;;;;1779693;79;21024;-70
2022/06/12 07:53:18;;;;;;;11.10;9.10;;;;;;;;;;1776623;79;20996;-71
2022/06/12 07:55:45;;;;;;;8.90;8.10;;;;;;;;;;1769649;80;20986;-71
2022/06/12 07:58:11;;;;;;;10.00;8.98;;;;;;;;;;1776294;80;21170;-71
2022/06/12 08:00:37;;;;;;;9.55;8.55;;;;;;;;;;1764001;80;21083;-70
2022/06/12 08:03:05;;;;;;;9.53;8.63;;;;;;;;;;1737584;82;21110;-70
2022/06/12 08:05:33;;;;;;;9.65;8.38;;;;;;;;;;1700647;82;21544;-70
2022/06/12 08:08:00;;;;;;;21.12;18.92;;;;;;;;;;1735228;82;21139;-70
2022/06/12 08:10:26;;;;;;;71.17;64.62;;;;;;;;;;1738685;82;21011;-69
2022/06/12 08:12:55;;;;;;;12.40;11.22;;;;;;;;;;1743309;82;21037;-70
2022/06/12 08:15:23;;;;;;;10.32;9.20;;;;;;;;;;1731372;82;20981;-68
2022/06/12 08:17:49;;;;;;;10.70;9.20;;;;;;;;;;1735606;81;21013;-68
2022/06/12 08:20:25;;;;;;;11.33;8.85;;;;;;;;;;1735102;82;20945;-70
2022/06/12 08:22:52;;;;;;;10.58;9.30;;;;;;;;;;1736671;82;21057;-71
2022/06/12 08:25:18;;;;;;;9.35;8.30;;;;;;;;;;1734055;82;21115;-70
2022/06/12 08:27:44;;;;;;;8.45;7.75;;;;;;;;;;1738942;82;20998;-70
2022/06/12 08:30:11;;;;;;;10.82;8.03;;;;;;;;;;1739262;82;21554;-70
2022/06/12 08:32:37;;;;;;;9.43;8.43;;;;;;;;;;1738088;82;21048;-71
2022/06/12 08:35:08;;;;;;;10.10;9.10;;;;;;;;;;1739529;80;21011;-72
2022/06/12 08:37:35;;;;;;;9.78;8.80;;;;;;;;;;1736280;80;21567;-73
2022/06/12 08:40:01;;;;;;;10.10;8.28;;;;;;;;;;1739648;81;20993;-71
2022/06/12 08:42:29;;;;;;;9.08;8.18;;;;;;;;;;1733303;82;20922;-72
2022/06/12 08:45:12;;;;;;;8.95;8.05;;;;;;;;;;1733996;82;21611;-72
2022/06/12 08:47:37;;;;;;;;;;;;;;;;;;1728621;81;20966;-72
2022/06/12 08:50:12;;;;;;;9.20;8.33;;;;;;;;;;1736298;82;20141;-72
2022/06/12 08:52:39;;;;;;;13.83;7.85;;;;;;;;;;1741162;81;21062;-70
2022/06/12 08:55:12;;;;;;;8.78;7.47;;;;;;;;;;1713043;82;21499;-69
2022/06/12 08:57:39;;;;;;;9.35;8.43;;;;;;;;;;1729422;82;21505;-70
2022/06/12 09:00:07;;;;;;;9.40;8.50;;;;;;;;;;1739204;82;21068;-74
2022/06/12 09:02:35;;;;;;;8.25;7.45;;;;;;;;;;1714616;83;21111;-72
2022/06/12 09:05:04;;;;;;;7.53;6.75;;;;;;;;;;1733753;82;21052;-72
2022/06/12 09:07:48;;;;;;;8.38;7.58;;;;;;;;;;1745920;81;21068;-71
2022/06/12 09:10:17;;;;;;;8.33;7.45;;;;;;;;;;1720614;82;21135;-71
2022/06/12 09:12:55;;;;;;;8.63;7.67;;;;;;;;;;1730136;81;21053;-71
2022/06/12 09:15:23;;;;;;;7.62;6.58;;;;;;;;;;1735338;82;21614;-70
2022/06/12 09:17:58;;;;;;;11.22;7.58;;;;;;;;;;1739292;82;21161;-69
2022/06/12 09:20:44;;;;;;;6.90;6.20;;;;;;;;;;1733441;82;21072;-69
2022/06/12 09:23:21;;;;;;;9.90;6.75;;;;;;;;;;1738652;81;21093;-68
2022/06/12 09:25:54;;;;;;;9.93;5.85;;;;;;;;;;1727872;82;21564;-68
2022/06/12 09:28:39;;;;;;;9.63;6.30;;;;;;;;;;1739602;80;21038;-69
2022/06/12 09:31:07;;;;;;;6.80;6.10;;;;;;;;;;1718879;82;21071;-70
2022/06/12 09:33:41;;;;;;;6.83;5.75;;;;;;;;;;1734311;82;21789;-66
2022/06/12 09:36:10;;;;;;;7.33;6.42;;;;;;;;;;1741876;81;21075;-67
2022/06/12 09:38:44;;;;;;;7.75;6.15;;;;;;;;;;1707265;83;21532;-66
2022/06/12 09:41:15;;;;;;;7.33;6.60;;;;;;;;;;1722474;82;21067;-67
2022/06/12 09:43:46;;;;;;;6.92;6.20;;;;;;;;;;1717297;82;21567;-71
2022/06/12 09:46:14;;;;;;;9.00;5.95;;;;;;;;;;1726767;82;21133;-69
2022/06/12 09:48:59;;;;;;;6.00;5.40;;;;;;;;;;1708528;84;21103;-70
2022/06/12 09:51:31;;;;;;;6.58;5.62;;;;;;;;;;1743206;80;21021;-68
2022/06/12 09:54:02;;;;;;;6.78;5.60;;;;;;;;;;1768957;80;21458;-69
2022/06/12 09:56:35;;;;;;;6.85;5.75;;;;;;;;;;1760318;80;21609;-68
2022/06/12 09:59:09;;;;;;;7.25;5.40;;;;;;;;;;1719465;82;21033;-69
2022/06/12 10:01:38;;;;;;;10.53;6.37;;;;;;;;;;1739792;82;21111;-72
2022/06/12 10:04:15;;;;;;;5.90;5.03;;;;;;;;;;1737421;81;21080;-71
2022/06/12 10:06:46;;;;;;;5.60;5.00;;;;;;;;;;1713612;82;21104;-68
2022/06/12 10:09:14;;;;;;;6.30;5.08;;;;;;;;;;1728272;82;21600;-68
2022/06/12 10:11:45;;;;;;;9.83;5.20;;;;;;;;;;1730505;81;21527;-67
2022/06/12 10:14:14;;;;;;;7.97;5.33;;;;;;;;;;1716887;82;21052;-67
2022/06/12 10:16:54;;;;;;;5.17;4.50;;;;;;;;;;1718531;82;21044;-67
2022/06/12 10:19:22;;;;;;;5.33;4.70;;;;;;;;;;1739075;82;21500;-68
2022/06/12 10:21:52;;;;;;;5.37;4.60;;;;;;;;;;1720590;82;21024;-67
2022/06/12 10:24:18;;;;;;;6.95;5.78;;;;;;;;;;1724328;81;21100;-68
2022/06/12 10:27:05;;;;;;;7.20;5.72;;;;;;;;;;1729587;82;21056;-70
2022/06/12 10:29:42;;;;;;;5.35;4.70;;;;;;;;;;1726325;81;21009;-67
2022/06/12 10:32:10;;;;;;;10.48;5.10;;;;;;;;;;1737306;82;21025;-68
2022/06/12 10:34:35;;;;;;;5.30;4.62;;;;;;;;;;1730761;82;21025;-67
2022/06/12 10:37:08;;;;;;;5.03;4.53;;;;;;;;;;1729041;81;20977;-68
2022/06/12 10:39:35;;;;;;;7.15;4.47;;;;;;;;;;1716504;82;21045;-67
2022/06/12 10:42:02;;;;;;;5.22;4.40;;;;;;;;;;1736953;82;21607;-68
2022/06/12 10:44:39;;;;;;;6.00;5.20;;;;;;;;;;1740324;80;21013;-68
2022/06/12 10:47:15;;;;;;;5.37;4.87;;;;;;;;;;1753511;80;20992;-69
2022/06/12 10:49:42;;;;;;;6.85;4.72;;;;;;;;;;1765820;79;20989;-67
2022/06/12 10:52:16;;;;;;;7.15;5.50;;;;;;;;;;1752663;80;21579;-67
2022/06/12 10:54:42;;;;;;;7.50;5.55;;;;;;;;;;1777895;79;20997;-68
2022/06/12 10:57:19;;;;;;;6.78;5.87;;;;;;;;;;1762057;80;21020;-67
2022/06/12 10:59:50;;;;;;;6.20;5.60;;;;;;;;;;1766398;79;21019;-67
2022/06/12 11:02:24;;;;;;;7.20;5.90;;;;;;;;;;1764387;79;21032;-67
2022/06/12 11:04:55;;;;;;;8.75;5.80;;;;;;;;;;1761988;79;21035;-68
2022/06/12 11:07:29;;;;;;;6.12;5.53;;;;;;;;;;1754571;79;21055;-67
2022/06/12 11:13:00;;;;;;;6.67;5.97;;;;;;;;;;1821523;78;22813;-67
2022/06/12 11:15:29;;;;;;;8.00;5.78;;;;;;;;;;1795022;80;21056;-67
2022/06/12 11:18:07;;;;;;;7.85;5.58;;;;;;;;;;1793152;80;21558;-67
2022/06/12 11:20:39;;;;;;;6.92;5.70;;;;;;;;;;1780571;80;21035;-66
2022/06/12 11:23:16;;;;;;;5.95;5.30;;;;;;;;;;1796128;80;20925;-67
2022/06/12 11:25:54;;;;;;;7.22;5.40;;;;;;;;;;1793996;80;21496;-67
2022/06/12 11:28:28;;;;;;;9.95;7.25;;;;;;;;;;1794164;80;21507;-67
2022/06/12 11:31:05;;;;;;;7.50;5.40;;;;;;;;;;1794517;80;21076;-67
2022/06/12 11:33:39;;;;;;;6.33;5.28;;;;;;;;;;1795453;80;21072;-66
2022/06/12 11:36:07;;;;;;;6.30;5.35;;;;;;;;;;1794518;80;21074;-67
2022/06/12 11:38:41;;;;;;;6.50;5.53;;;;;;;;;;1791872;80;21000;-66
2022/06/12 11:41:09;;;;;;;5.80;5.20;;;;;;;;;;1771429;79;21048;-66
2022/06/12 11:43:42;;;;;;;8.30;5.72;;;;;;;;;;1783348;80;20975;-67
2022/06/12 11:46:13;;;;;;;7.60;5.50;;;;;;;;;;1788939;80;21075;-67
2022/06/12 11:48:54;;;;;;;8.83;6.23;;;;;;;;;;1778901;80;21560;-67
2022/06/12 11:51:31;;;;;;;7.58;5.65;;;;;;;;;;1780686;80;21025;-66
2022/06/12 11:54:11;;;;;;;6.00;5.40;;;;;;;;;;1795577;80;21059;-66
2022/06/12 11:56:49;;;;;;;7.92;5.50;;;;;;;;;;1793308;80;21051;-67
2022/06/12 11:59:27;;;;;;;7.72;5.45;;;;;;;;;;1790640;79;20972;-68
2022/06/12 12:02:07;;;;;;;6.03;5.42;;;;;;;;;;1763954;80;21000;-70
2022/06/12 12:04:50;;;;;;;7.17;5.70;;;;;;;;;;1778523;80;21035;-70
2022/06/12 12:07:27;;;;;;;6.67;5.58;;;;;;;;;;1784723;80;21542;-71
2022/06/12 12:10:11;;;;;;;6.12;5.53;;;;;;;;;;1794740;80;21031;-72
2022/06/12 12:12:38;;;;;;;6.65;5.70;;;;;;;;;;1768241;79;21516;-69
2022/06/12 12:15:06;;;;;;;13.30;6.37;;;;;;;;;;1778902;79;21065;-70
2022/06/12 12:17:40;;;;;;;5.50;5.00;;;;;;;;;;1758192;79;21028;-72
2022/06/12 12:20:13;;;;;;;6.47;5.67;;;;;;;;;;1720309;82;21148;-71
2022/06/12 12:22:44;;;;;;;6.35;5.75;;;;;;;;;;1769344;80;21096;-70
2022/06/12 12:25:18;;;;;;;7.97;5.30;;;;;;;;;;1780475;80;21048;-73
2022/06/12 12:27:45;;;;;;;6.37;5.15;;;;;;;;;;1755003;80;21068;-71
2022/06/12 12:30:13;;;;;;;7.85;5.20;;;;;;;;;;1762834;80;21016;-72
2022/06/12 12:32:40;;;;;;;5.90;5.20;;;;;;;;;;1780943;80;21571;-75
2022/06/12 12:35:08;;;;;;;6.33;5.20;;;;;;;;;;1781148;80;21076;-72
2022/06/12 12:43:16;;;;;;;5.28;4.78;;;;;;;;;;1758976;80;22197;-71
2022/06/12 12:45:42;;;;;;;5.25;4.62;;;;;;;;;;1771445;80;21060;-73
2022/06/12 12:48:11;;;;;;;5.70;5.10;;;;;;;;;;1776736;79;21028;-72
2022/06/12 12:50:50;;;;;;;5.47;4.95;;;;;;;;;;1785816;80;21013;-71
2022/06/12 12:53:21;;;;;;;6.37;4.92;;;;;;;;;;1784346;80;22100;-71
2022/06/12 12:55:49;;;;;;;5.30;4.80;;;;;;;;;;1777470;80;21075;-73
2022/06/12 12:58:19;;;;;;;5.35;4.58;;;;;;;;;;1777320;79;21008;-69
2022/06/12 13:00:46;;;;;;;5.50;5.00;;;;;;;;;;1783981;79;21113;-70
2022/06/12 13:03:25;;;;;;;4.60;4.20;;;;;;;;;;1776427;80;21538;-69
2022/06/12 13:05:56;;;;;;;5.35;4.72;;;;;;;;;;1772424;80;21835;-70
2022/06/12 13:08:41;;;;;;;6.03;4.55;;;;;;;;;;1773221;79;21044;-70
2022/06/12 13:11:12;;;;;;;4.85;4.35;;;;;;;;;;1767335;80;21058;-68
2022/06/12 13:13:41;;;;;;;6.22;4.60;;;;;;;;;;1782569;80;21063;-70
2022/06/12 13:16:26;;;;;;;4.67;4.17;;;;;;;;;;1783570;80;21627;-70
2022/06/12 13:19:00;;;;;;;14.03;12.70;;;;;;;;;;1777460;79;21584;-73
2022/06/12 13:21:36;;;;;;;23.60;20.85;;;;;;;;;;1773742;80;21006;-73
2022/06/12 13:24:13;;;;;;;9.70;8.55;;;;;;;;;;1768892;80;21069;-73
2022/06/12 13:26:40;;;;;;;5.83;5.22;;;;;;;;;;1778963;79;21639;-73
2022/06/12 13:29:08;;;;;;;5.40;4.53;;;;;;;;;;1780037;79;21527;-73
2022/06/12 13:31:35;;;;;;;5.20;4.70;;;;;;;;;;1771061;81;21569;-71
2022/06/12 13:34:02;;;;;;;5.08;4.53;;;;;;;;;;1748461;79;21064;-72
2022/06/12 13:36:36;;;;;;;4.50;4.03;;;;;;;;;;1771697;80;21028;-70
2022/06/12 13:39:03;;;;;;;4.90;4.42;;;;;;;;;;1765364;80;21036;-70
2022/06/12 13:41:41;;;;;;;6.25;5.08;;;;;;;;;;1757865;80;21012;-70
2022/06/12 13:44:24;;;;;;;5.65;4.70;;;;;;;;;;1772653;80;20997;-69
2022/06/12 13:46:51;;;;;;;5.30;4.70;;;;;;;;;;1777748;80;21310;-70
2022/06/12 13:49:34;;;;;;;4.92;4.45;;;;;;;;;;1759730;80;21013;-69
2022/06/12 13:52:02;;;;;;;6.58;4.20;;;;;;;;;;1777920;80;21032;-70
2022/06/12 13:54:29;;;;;;;4.95;4.45;;;;;;;;;;1764840;79;21005;-70
2022/06/12 13:56:57;;;;;;;5.20;4.50;;;;;;;;;;1738261;80;21060;-70
2022/06/12 13:59:24;;;;;;;5.15;4.40;;;;;;;;;;1777684;79;21103;-69
2022/06/12 14:01:50;;;;;;;6.72;4.58;;;;;;;;;;1763450;79;21035;-69
2022/06/12 14:04:24;;;;;;;5.70;4.22;;;;;;;;;;1780093;80;21008;-71
2022/06/12 14:06:50;;;;;;;6.65;4.35;;;;;;;;;;1784102;80;20996;-72
2022/06/12 14:09:21;;;;;;;5.00;3.98;;;;;;;;;;1776692;80;21100;-71
2022/06/12 14:11:48;;;;;;;4.85;4.30;;;;;;;;;;1782554;79;21008;-71
2022/06/12 14:14:16;;;;;;;6.55;4.17;;;;;;;;;;1792723;80;21164;-68
2022/06/12 14:16:43;;;;;;;17.42;4.75;;;;;;;;;;1783688;80;21075;-67
2022/06/12 14:19:10;;;;;;;11.88;4.30;;;;;;;;;;1776462;80;21542;-72
2022/06/12 14:21:38;;;;;;;17.42;4.58;;;;;;;;;;1768058;80;21075;-70
2022/06/12 14:24:15;;;;;;;10.30;4.17;;;;;;;;;;1769158;80;21168;-70
2022/06/12 14:26:43;;;;;;;8.70;3.80;;;;;;;;;;1791624;80;21173;-70
2022/06/12 14:29:29;;;;;;;6.30;3.58;;;;;;;;;;1793113;80;21090;-70
2022/06/12 14:32:12;;;;;;;7.37;3.83;;;;;;;;;;1767422;80;21076;-71
2022/06/12 14:34:39;;;;;;;5.53;3.55;;;;;;;;;;1785831;80;21104;-72
2022/06/12 14:37:05;;;;;;;5.72;3.80;;;;;;;;;;1792162;80;21078;-69
2022/06/12 14:39:34;;;;;;;5.30;3.72;;;;;;;;;;1792474;80;21030;-70
2022/06/12 14:42:01;;;;;;;7.03;4.58;;;;;;;;;;1791474;79;21524;-70
2022/06/12 14:44:28;;;;;;;5.22;3.77;;;;;;;;;;1791495;80;20997;-70
2022/06/12 14:46:55;;;;;;;4.97;4.15;;;;;;;;;;1751347;81;21039;-70
2022/06/12 14:49:22;;;;;;;5.22;4.17;;;;;;;;;;1783551;80;21012;-70
2022/06/12 14:51:53;;;;;;;5.12;3.83;;;;;;;;;;1792803;79;21036;-70
2022/06/12 14:54:19;;;;;;;4.30;3.87;;;;;;;;;;1792320;80;20985;-70
2022/06/12 14:56:45;;;;;;;3.95;3.55;;;;;;;;;;1761864;81;21020;-70
2022/06/12 14:59:21;;;;;;;4.33;3.80;;;;;;;;;;1772359;80;21036;-70
2022/06/12 15:01:48;;;;;;;4.78;3.60;;;;;;;;;;1771059;80;21519;-70
2022/06/12 15:04:15;;;;;;;4.50;4.00;;;;;;;;;;1756095;82;21094;-70
2022/06/12 15:06:42;;;;;;;5.03;3.80;;;;;;;;;;1782892;80;20981;-70
2022/06/12 15:09:08;;;;;;;4.28;3.87;;;;;;;;;;1793077;80;21075;-70